createdAt,value
2018-03-28T00:01:05.277Z,30.13
2018-03-28T00:03:31.471Z,29.93
2018-03-28T00:05:57.646Z,30.17
2018-03-28T00:08:23.871Z,31.50
2018-03-28T00:10:50.009Z,36.73
2018-03-28T00:13:16.129Z,38.80
2018-03-28T00:15:42.224Z,34.40
2018-03-28T00:18:08.350Z,28.73
2018-03-28T00:20:34.486Z,32.30
2018-03-28T00:23:00.625Z,30.70
2018-03-28T00:25:26.780Z,33.87
2018-03-28T00:27:52.948Z,34.67
2018-03-28T00:30:19.139Z,36.63
2018-03-28T00:32:46.050Z,34.77
2018-03-28T00:35:12.241Z,33.47
2018-03-28T00:37:38.424Z,34.47
2018-03-28T00:40:04.592Z,38.40
2018-03-28T00:42:30.724Z,36.87
2018-03-28T00:44:56.848Z,36.83
2018-03-28T00:47:23.037Z,37.30
2018-03-28T00:49:49.236Z,33.70
2018-03-28T00:52:15.418Z,38.87
2018-03-28T00:54:42.316Z,38.40
2018-03-28T00:57:08.531Z,37.50
2018-03-28T00:59:34.689Z,34.20
2018-03-28T01:02:01.635Z,36.20
2018-03-28T01:04:28.576Z,40.83
2018-03-28T01:06:54.791Z,37.30
2018-03-28T01:09:20.946Z,38.83
2018-03-28T01:11:47.837Z,39.13
2018-03-28T01:14:14.018Z,38.27
2018-03-28T01:16:40.889Z,38.97
2018-03-28T01:19:07.061Z,33.03
2018-03-28T01:21:33.199Z,41.70
2018-03-28T01:23:59.318Z,41.30
2018-03-28T01:26:26.223Z,40.67
2018-03-28T01:28:52.412Z,41.70
2018-03-28T01:31:19.336Z,48.13
2018-03-28T01:33:45.535Z,39.47
2018-03-28T01:36:11.719Z,38.70
2018-03-28T01:38:38.618Z,47.90
2018-03-28T01:41:04.814Z,39.63
2018-03-28T01:43:30.989Z,42.10
2018-03-28T01:45:57.183Z,44.60
2018-03-28T01:48:23.408Z,43.63
2018-03-28T01:50:49.540Z,46.00
2018-03-28T01:53:15.673Z,45.07
2018-03-28T01:55:41.844Z,42.50
2018-03-28T01:58:08.753Z,43.80
2018-03-28T02:00:34.921Z,45.80
2018-03-28T02:03:01.834Z,51.80
2018-03-28T02:05:27.991Z,44.77
2018-03-28T02:07:54.899Z,50.23
2018-03-28T02:10:21.033Z,45.17
2018-03-28T02:12:47.905Z,40.10
2018-03-28T02:15:14.835Z,43.40
2018-03-28T02:17:41.021Z,45.73
2018-03-28T02:20:07.237Z,40.87
2018-03-28T02:22:33.440Z,43.77
2018-03-28T02:24:59.561Z,44.33
2018-03-28T02:27:26.430Z,40.30
2018-03-28T02:29:52.562Z,46.13
2018-03-28T02:32:18.751Z,45.30
2018-03-28T02:34:45.599Z,42.50
2018-03-28T02:37:12.491Z,41.57
2018-03-28T02:39:38.670Z,41.40
2018-03-28T02:42:05.585Z,41.83
2018-03-28T02:44:31.743Z,41.87
2018-03-28T02:46:58.661Z,42.00
2018-03-28T02:49:25.635Z,40.10
2018-03-28T02:51:52.490Z,42.57
2018-03-28T02:54:18.670Z,46.80
2018-03-28T02:56:45.590Z,42.50
2018-03-28T02:59:11.788Z,43.30
2018-03-28T03:01:37.943Z,49.50
2018-03-28T03:04:04.125Z,41.90
2018-03-28T03:06:31.077Z,46.50
2018-03-28T03:08:57.246Z,50.33
2018-03-28T03:11:23.361Z,40.53
2018-03-28T03:13:49.508Z,44.57
2018-03-28T03:16:15.696Z,42.73
2018-03-28T03:18:41.805Z,42.17
2018-03-28T03:21:08.700Z,39.47
2018-03-28T03:23:34.821Z,40.67
2018-03-28T03:26:00.939Z,43.30
2018-03-28T03:28:27.101Z,45.50
2018-03-28T03:30:54.052Z,49.20
2018-03-28T03:33:20.230Z,48.63
2018-03-28T03:35:46.412Z,43.23
2018-03-28T03:38:12.582Z,44.23
2018-03-28T03:40:38.750Z,39.60
2018-03-28T03:43:05.672Z,42.07
2018-03-28T03:45:31.811Z,47.43
2018-03-28T03:47:58.032Z,44.43
2018-03-28T03:50:24.155Z,44.27
2018-03-28T03:52:50.264Z,49.60
2018-03-28T03:55:16.409Z,46.07
2018-03-28T03:57:42.580Z,42.17
2018-03-28T04:00:09.512Z,42.60
2018-03-28T04:02:36.445Z,47.10
2018-03-28T04:05:02.600Z,42.07
2018-03-28T04:07:29.540Z,43.33
2018-03-28T04:09:56.456Z,45.40
2018-03-28T04:12:30.433Z,43.00
2018-03-28T04:14:56.584Z,43.70
2018-03-28T04:17:22.740Z,50.17
2018-03-28T04:19:49.651Z,42.40
2018-03-28T04:22:15.837Z,41.10
2018-03-28T04:24:42.047Z,45.87
2018-03-28T04:27:08.991Z,43.30
2018-03-28T04:29:35.892Z,39.13
2018-03-28T04:32:02.097Z,38.40
2018-03-28T04:34:28.237Z,43.37
2018-03-28T04:36:54.480Z,47.10
2018-03-28T04:39:20.689Z,41.20
2018-03-28T04:41:46.784Z,43.93
2018-03-28T04:44:13.628Z,50.93
2018-03-28T04:46:40.496Z,50.10
2018-03-28T04:49:06.674Z,44.00
2018-03-28T04:51:33.671Z,51.00
2018-03-28T04:53:59.792Z,41.43
2018-03-28T04:56:25.948Z,43.60
2018-03-28T04:58:52.813Z,45.70
2018-03-28T05:01:18.980Z,38.50
2018-03-28T05:03:45.102Z,40.13
2018-03-28T05:06:11.252Z,41.00
2018-03-28T05:08:37.448Z,40.13
2018-03-28T05:11:03.648Z,42.37
2018-03-28T05:13:30.567Z,40.60
2018-03-28T05:15:56.727Z,42.90
2018-03-28T05:18:23.639Z,40.87
2018-03-28T05:20:49.849Z,46.20
2018-03-28T05:23:16.650Z,42.30
2018-03-28T05:25:42.912Z,41.27
2018-03-28T05:28:09.058Z,43.47
2018-03-28T05:30:35.177Z,39.93
2018-03-28T05:33:01.340Z,40.47
2018-03-28T05:35:27.471Z,39.03
2018-03-28T05:37:54.451Z,39.30
2018-03-28T05:40:20.610Z,38.33
2018-03-28T05:42:46.842Z,36.03
2018-03-28T05:45:12.973Z,38.83
2018-03-28T05:47:39.504Z,41.03
2018-03-28T05:50:05.675Z,47.43
2018-03-28T05:52:32.525Z,41.63
2018-03-28T05:54:58.715Z,43.10
2018-03-28T05:57:24.877Z,44.40
2018-03-28T05:59:51.802Z,41.43
2018-03-28T06:02:17.943Z,37.87
2018-03-28T06:04:44.833Z,42.87
2018-03-28T06:07:11.008Z,37.93
2018-03-28T06:09:37.949Z,40.30
2018-03-28T06:12:04.887Z,35.40
2018-03-28T06:14:31.818Z,41.13
2018-03-28T06:16:58.735Z,40.40
2018-03-28T06:19:24.894Z,38.73
2018-03-28T06:21:51.063Z,37.50
2018-03-28T06:24:17.223Z,35.20
2018-03-28T06:26:43.382Z,41.33
2018-03-28T06:29:09.583Z,35.00
2018-03-28T06:31:35.771Z,36.10
2018-03-28T06:34:01.926Z,36.47
2018-03-28T06:36:28.105Z,37.23
2018-03-28T06:38:55.005Z,35.37
2018-03-28T06:41:21.176Z,42.93
2018-03-28T06:43:48.044Z,34.70
2018-03-28T06:46:14.222Z,35.20
2018-03-28T06:48:41.184Z,34.17
2018-03-28T06:51:08.034Z,31.80
2018-03-28T06:53:35.006Z,31.20
2018-03-28T06:56:01.120Z,34.53
2018-03-28T06:58:27.233Z,34.27
2018-03-28T07:00:54.163Z,35.47
2018-03-28T07:03:21.060Z,31.60
2018-03-28T07:05:47.252Z,35.73
2018-03-28T07:08:14.183Z,30.90
2018-03-28T07:10:41.086Z,32.73
2018-03-28T07:13:07.232Z,27.43
2018-03-28T07:15:33.447Z,27.90
2018-03-28T07:17:59.677Z,29.73
2018-03-28T07:20:25.845Z,25.20
2018-03-28T07:22:52.768Z,28.30
2018-03-28T07:25:18.940Z,28.80
2018-03-28T07:27:45.124Z,32.77
2018-03-28T07:30:11.253Z,26.27
2018-03-28T07:32:37.447Z,28.10
2018-03-28T07:35:03.640Z,28.20
2018-03-28T07:37:29.780Z,29.87
2018-03-28T07:39:55.978Z,29.57
2018-03-28T07:42:22.854Z,27.50
2018-03-28T07:44:49.063Z,26.20
2018-03-28T07:47:15.261Z,28.83
2018-03-28T07:49:41.405Z,29.37
2018-03-28T07:52:08.306Z,29.60
2018-03-28T07:54:34.417Z,28.87
2018-03-28T07:57:00.587Z,26.73
2018-03-28T07:59:27.453Z,30.97
2018-03-28T08:01:54.383Z,28.87
2018-03-28T08:04:21.323Z,28.23
2018-03-28T08:06:47.428Z,32.10
2018-03-28T08:09:13.585Z,28.70
2018-03-28T08:11:40.500Z,28.00
2018-03-28T08:14:06.741Z,24.93
2018-03-28T08:16:32.951Z,27.20
2018-03-28T08:18:59.114Z,24.00
2018-03-28T08:21:26.010Z,18.43
2018-03-28T08:23:52.181Z,18.53
2018-03-28T08:26:19.084Z,19.93
2018-03-28T08:28:45.252Z,16.13
2018-03-28T08:31:12.253Z,12.10
2018-03-28T08:33:38.394Z,14.90
2018-03-28T08:36:04.550Z,13.30
2018-03-28T08:38:31.539Z,12.67
2018-03-28T08:40:57.696Z,11.00
2018-03-28T08:43:23.830Z,12.87
2018-03-28T08:45:49.996Z,12.47
2018-03-28T08:48:16.150Z,9.40
2018-03-28T08:50:42.331Z,9.50
2018-03-28T08:53:09.302Z,11.10
2018-03-28T08:55:35.444Z,8.63
2018-03-28T08:58:01.661Z,9.57
2018-03-28T09:00:27.778Z,11.57
2018-03-28T09:02:53.953Z,9.13
2018-03-28T09:05:20.045Z,10.67
2018-03-28T09:07:46.198Z,11.63
2018-03-28T09:10:12.369Z,14.90
2018-03-28T09:12:39.266Z,10.40
2018-03-28T09:15:05.448Z,12.07
2018-03-28T09:17:31.620Z,10.53
2018-03-28T09:19:57.740Z,11.93
2018-03-28T09:22:23.948Z,11.57
2018-03-28T09:24:50.139Z,10.67
2018-03-28T09:27:17.072Z,10.93
2018-03-28T09:29:43.198Z,10.67
2018-03-28T09:32:09.388Z,13.83
2018-03-28T09:34:35.558Z,10.23
2018-03-28T09:37:02.486Z,12.10
2018-03-28T09:39:28.712Z,10.67
2018-03-28T09:41:54.919Z,11.17
2018-03-28T09:44:21.117Z,10.67
2018-03-28T09:46:47.263Z,9.87
2018-03-28T09:49:13.469Z,11.40
2018-03-28T09:51:39.655Z,12.83
2018-03-28T09:54:05.781Z,12.37
2018-03-28T09:56:31.911Z,10.10
2018-03-28T09:58:58.066Z,15.07
2018-03-28T10:01:29.033Z,12.30
2018-03-28T10:04:01.284Z,10.23
2018-03-28T10:06:27.443Z,10.00
2018-03-28T10:08:53.664Z,11.40
2018-03-28T10:11:19.880Z,15.00
2018-03-28T10:13:46.027Z,11.60
2018-03-28T10:16:12.206Z,13.30
2018-03-28T10:18:39.140Z,9.17
2018-03-28T10:21:06.018Z,12.67
2018-03-28T10:23:32.179Z,11.50
2018-03-28T10:25:58.341Z,10.47
2018-03-28T10:28:25.293Z,8.17
2018-03-28T10:30:52.216Z,10.93
2018-03-28T10:33:18.417Z,9.07
2018-03-28T10:35:44.579Z,10.50
2018-03-28T10:38:10.795Z,8.67
2018-03-28T10:40:36.987Z,9.27
2018-03-28T10:43:03.207Z,12.80
2018-03-28T10:45:29.369Z,10.23
2018-03-28T10:47:55.505Z,17.13
2018-03-28T10:50:21.683Z,11.03
2018-03-28T10:52:47.859Z,7.33
2018-03-28T10:55:13.993Z,9.93
2018-03-28T10:57:40.156Z,11.37
2018-03-28T11:00:06.306Z,7.03
2018-03-28T11:02:32.451Z,9.10
2018-03-28T11:04:58.631Z,6.93
2018-03-28T11:07:24.804Z,6.30
2018-03-28T11:09:50.951Z,9.10
2018-03-28T11:12:17.113Z,5.60
2018-03-28T11:14:43.278Z,7.27
2018-03-28T11:17:09.442Z,7.00
2018-03-28T11:19:36.332Z,8.07
2018-03-28T11:22:02.465Z,6.30
2018-03-28T11:24:28.624Z,6.13
2018-03-28T11:26:54.822Z,9.83
2018-03-28T11:29:21.024Z,11.97
2018-03-28T11:31:47.179Z,8.33
2018-03-28T11:34:13.360Z,6.77
2018-03-28T11:36:39.599Z,7.70
2018-03-28T11:39:05.749Z,7.37
2018-03-28T11:41:31.904Z,14.00
2018-03-28T11:43:58.101Z,7.73
2018-03-28T11:46:24.265Z,10.57
2018-03-28T11:48:50.464Z,6.63
2018-03-28T11:51:16.666Z,4.70
2018-03-28T11:53:42.875Z,5.07
2018-03-28T11:56:09.785Z,9.00
2018-03-28T11:58:35.909Z,4.67
2018-03-28T12:01:02.097Z,6.53
2018-03-28T12:03:28.248Z,6.77
2018-03-28T12:05:54.433Z,5.37
2018-03-28T12:08:21.384Z,7.90
2018-03-28T12:10:47.549Z,10.23
2018-03-28T12:13:13.708Z,8.50
2018-03-28T12:15:40.649Z,8.63
2018-03-28T12:18:06.806Z,8.20
2018-03-28T12:20:33.000Z,6.33
2018-03-28T12:22:59.129Z,11.30
2018-03-28T12:25:25.278Z,7.30
2018-03-28T12:27:52.246Z,11.80
2018-03-28T12:30:18.449Z,6.60
2018-03-28T12:32:45.376Z,9.50
2018-03-28T12:35:11.539Z,7.20
2018-03-28T12:37:37.729Z,8.23
2018-03-28T12:40:04.665Z,7.13
2018-03-28T12:42:30.808Z,6.07
2018-03-28T12:44:56.966Z,12.13
2018-03-28T12:47:23.113Z,5.73
2018-03-28T12:49:49.337Z,8.83
2018-03-28T12:52:15.488Z,7.93
2018-03-28T12:54:41.549Z,4.67
2018-03-28T12:57:08.475Z,11.00
2018-03-28T12:59:34.658Z,6.23
2018-03-28T13:02:00.800Z,8.67
2018-03-28T13:04:27.893Z,10.07
2018-03-28T13:06:54.794Z,6.73
2018-03-28T13:09:21.003Z,7.60
2018-03-28T13:11:47.218Z,9.97
2018-03-28T13:14:13.383Z,9.83
2018-03-28T13:16:39.585Z,7.50
2018-03-28T13:19:05.780Z,6.00
2018-03-28T13:21:31.992Z,9.67
2018-03-28T13:23:58.140Z,7.70
2018-03-28T13:26:25.017Z,7.67
2018-03-28T13:28:51.165Z,7.40
2018-03-28T13:31:17.358Z,10.13
2018-03-28T13:33:43.480Z,7.87
2018-03-28T13:36:09.634Z,6.13
2018-03-28T13:38:35.795Z,6.87
2018-03-28T13:41:02.008Z,8.00
2018-03-28T13:43:28.173Z,7.10
2018-03-28T13:45:55.037Z,6.90
2018-03-28T13:48:21.218Z,6.00
2018-03-28T13:50:47.418Z,8.37
2018-03-28T13:53:13.640Z,8.50
2018-03-28T13:55:39.848Z,6.87
2018-03-28T13:58:06.010Z,6.00
2018-03-28T14:00:32.224Z,9.07
2018-03-28T14:02:58.407Z,6.60
2018-03-28T14:05:24.610Z,6.30
2018-03-28T14:07:51.479Z,6.20
2018-03-28T14:10:18.358Z,6.47
2018-03-28T14:12:44.486Z,5.83
2018-03-28T14:15:10.668Z,13.77
2018-03-28T14:17:37.617Z,4.90
2018-03-28T14:20:03.808Z,7.67
2018-03-28T14:22:29.975Z,5.43
2018-03-28T14:24:56.118Z,8.93
2018-03-28T14:27:22.297Z,10.20
2018-03-28T14:29:48.431Z,11.83
2018-03-28T14:32:14.645Z,8.33
2018-03-28T14:34:40.776Z,7.30
2018-03-28T14:37:06.947Z,9.57
2018-03-28T14:39:33.125Z,13.00
2018-03-28T14:41:59.373Z,8.27
2018-03-28T14:44:26.349Z,7.00
2018-03-28T14:46:52.500Z,13.37
2018-03-28T14:49:18.698Z,6.70
2018-03-28T14:51:44.862Z,4.40
2018-03-28T14:54:11.048Z,5.90
2018-03-28T14:56:37.270Z,7.93
2018-03-28T14:59:04.157Z,4.60
2018-03-28T15:01:30.304Z,5.50
2018-03-28T15:03:56.442Z,7.73
2018-03-28T15:06:22.651Z,5.83
2018-03-28T15:08:48.758Z,5.27
2018-03-28T15:11:14.961Z,6.83
2018-03-28T15:13:41.084Z,5.83
2018-03-28T15:16:07.276Z,9.37
2018-03-28T15:18:33.469Z,7.00
2018-03-28T15:20:59.672Z,5.73
2018-03-28T15:23:25.840Z,5.63
2018-03-28T15:25:52.792Z,5.17
2018-03-28T15:28:19.008Z,7.77
2018-03-28T15:30:45.170Z,4.70
2018-03-28T15:33:12.049Z,6.67
2018-03-28T15:35:38.193Z,5.80
2018-03-28T15:38:04.405Z,8.40
2018-03-28T15:40:30.601Z,8.53
2018-03-28T15:42:57.536Z,6.33
2018-03-28T15:45:24.425Z,12.93
2018-03-28T15:47:50.641Z,5.13
2018-03-28T15:50:16.782Z,5.50
2018-03-28T15:52:42.924Z,6.33
2018-03-28T15:55:09.119Z,6.23
2018-03-28T15:57:35.259Z,4.93
2018-03-28T16:00:01.509Z,6.80
2018-03-28T16:02:27.684Z,7.63
2018-03-28T16:04:54.638Z,10.23
2018-03-28T16:07:20.825Z,6.70
2018-03-28T16:09:46.986Z,14.10
2018-03-28T16:12:13.910Z,10.13
2018-03-28T16:14:40.086Z,9.43
2018-03-28T16:17:06.389Z,6.93
2018-03-28T16:19:33.186Z,5.90
2018-03-28T16:21:59.328Z,5.50
2018-03-28T16:24:25.533Z,8.50
2018-03-28T16:26:51.687Z,6.47
2018-03-28T16:29:17.873Z,16.53
2018-03-28T16:31:44.028Z,7.47
2018-03-28T16:34:10.191Z,15.53
2018-03-28T16:36:37.086Z,7.37
2018-03-28T16:39:03.261Z,9.73
2018-03-28T16:41:30.160Z,6.53
2018-03-28T16:43:56.261Z,12.77
2018-03-28T16:46:22.468Z,7.67
2018-03-28T16:48:48.663Z,9.00
2018-03-28T16:51:14.849Z,12.30
2018-03-28T16:53:41.002Z,12.10
2018-03-28T16:56:07.122Z,10.93
2018-03-28T16:58:33.267Z,13.10
2018-03-28T17:00:59.468Z,20.07
2018-03-28T17:03:25.677Z,22.33
2018-03-28T17:05:51.867Z,15.80
2018-03-28T17:08:18.826Z,17.13
2018-03-28T17:10:45.061Z,11.70
2018-03-28T17:13:11.241Z,14.40
2018-03-28T17:15:37.377Z,12.60
2018-03-28T17:18:03.489Z,19.20
2018-03-28T17:20:29.728Z,16.80
2018-03-28T17:22:55.885Z,15.00
2018-03-28T17:25:22.101Z,15.50
2018-03-28T17:27:48.973Z,14.83
2018-03-28T17:30:15.147Z,15.27
2018-03-28T17:32:41.268Z,10.93
2018-03-28T17:35:07.394Z,18.30
2018-03-28T17:37:33.582Z,17.40
2018-03-28T17:39:59.726Z,15.97
2018-03-28T17:42:25.888Z,17.33
2018-03-28T17:44:52.034Z,18.83
2018-03-28T17:47:19.059Z,15.73
2018-03-28T17:49:45.167Z,19.40
2018-03-28T17:52:11.359Z,15.60
2018-03-28T17:54:37.519Z,16.10
2018-03-28T17:57:03.751Z,19.40
2018-03-28T17:59:29.968Z,17.10
2018-03-28T18:01:56.184Z,16.10
2018-03-28T18:04:22.371Z,21.47
2018-03-28T18:06:49.298Z,15.60
2018-03-28T18:09:15.544Z,12.83
2018-03-28T18:11:42.509Z,14.43
2018-03-28T18:14:08.662Z,12.13
2018-03-28T18:16:34.891Z,15.43
2018-03-28T18:19:01.065Z,10.33
2018-03-28T18:21:28.003Z,9.40
2018-03-28T18:23:54.196Z,11.00
2018-03-28T18:26:20.397Z,9.93
2018-03-28T18:28:46.586Z,13.40
2018-03-28T18:31:13.492Z,9.63
2018-03-28T18:33:39.706Z,7.50
2018-03-28T18:36:05.922Z,6.17
2018-03-28T18:38:32.136Z,8.27
2018-03-28T18:40:59.044Z,7.60
2018-03-28T18:43:25.181Z,4.70
2018-03-28T18:45:51.340Z,4.30
2018-03-28T18:48:18.267Z,7.23
2018-03-28T18:50:45.176Z,6.67
2018-03-28T18:53:11.363Z,4.47
2018-03-28T18:55:37.548Z,6.10
2018-03-28T18:58:03.745Z,10.30
2018-03-28T19:00:29.917Z,6.70
2018-03-28T19:02:56.876Z,4.80
2018-03-28T19:05:23.832Z,9.10
2018-03-28T19:07:50.033Z,7.67
2018-03-28T19:10:16.165Z,6.53
2018-03-28T19:12:43.135Z,6.27
2018-03-28T19:15:09.343Z,14.03
2018-03-28T19:17:36.273Z,8.10
2018-03-28T19:20:03.245Z,9.00
2018-03-28T19:22:29.385Z,10.93
2018-03-28T19:24:55.565Z,7.23
2018-03-28T19:27:21.738Z,9.30
2018-03-28T19:29:47.935Z,8.30
2018-03-28T19:32:14.871Z,9.90
2018-03-28T19:34:41.076Z,8.03
2018-03-28T19:37:07.272Z,10.13
2018-03-28T19:39:33.468Z,11.27
2018-03-28T19:42:00.452Z,9.87
2018-03-28T19:44:26.652Z,10.50
2018-03-28T19:46:52.829Z,11.50
2018-03-28T19:49:19.010Z,10.50
2018-03-28T19:51:45.242Z,9.10
2018-03-28T19:54:11.434Z,8.00
2018-03-28T19:56:37.573Z,8.23
2018-03-28T19:59:04.487Z,10.47
2018-03-28T20:01:30.648Z,10.93
2018-03-28T20:03:57.556Z,12.10
2018-03-28T20:06:23.745Z,9.33
2018-03-28T20:08:49.905Z,6.97
2018-03-28T20:11:16.081Z,7.47
2018-03-28T20:13:42.940Z,6.47
2018-03-28T20:16:09.101Z,7.63
2018-03-28T20:18:35.271Z,6.83
2018-03-28T20:21:02.224Z,5.17
2018-03-28T20:23:29.167Z,5.70
2018-03-28T20:25:56.124Z,5.07
2018-03-28T20:28:22.377Z,6.50
2018-03-28T20:30:48.658Z,4.47
2018-03-28T20:33:15.538Z,4.63
2018-03-28T20:35:41.779Z,10.00
2018-03-28T20:38:07.964Z,5.20
2018-03-28T20:40:34.877Z,4.90
2018-03-28T20:43:01.059Z,4.07
2018-03-28T20:45:27.224Z,3.00
2018-03-28T20:47:53.351Z,2.70
2018-03-28T20:50:19.499Z,2.90
2018-03-28T20:52:45.725Z,3.13
2018-03-28T20:55:12.611Z,3.40
2018-03-28T20:57:46.834Z,3.10
2018-03-28T21:00:13.016Z,3.20
2018-03-28T21:02:39.926Z,3.00
2018-03-28T21:05:06.183Z,3.53
2018-03-28T21:07:32.326Z,2.60
2018-03-28T21:09:59.200Z,2.03
2018-03-28T21:12:25.368Z,2.37
2018-03-28T21:14:52.333Z,2.13
2018-03-28T21:17:19.210Z,6.73
2018-03-28T21:19:45.415Z,2.40
2018-03-28T21:22:12.336Z,2.00
2018-03-28T21:24:39.214Z,1.70
2018-03-28T21:27:06.112Z,3.53
2018-03-28T21:29:32.278Z,1.70
2018-03-28T21:31:59.152Z,2.23
2018-03-28T21:34:25.254Z,2.10
2018-03-28T21:36:52.136Z,3.50
2018-03-28T21:39:18.363Z,2.40
2018-03-28T21:41:44.533Z,3.00
2018-03-28T21:44:10.717Z,3.17
2018-03-28T21:46:36.916Z,3.27
2018-03-28T21:49:03.025Z,6.40
2018-03-28T21:51:29.906Z,3.60
2018-03-28T21:53:56.009Z,3.23
2018-03-28T21:56:22.188Z,2.63
2018-03-28T21:58:48.355Z,5.00
2018-03-28T22:01:15.312Z,3.10
2018-03-28T22:03:41.485Z,2.90
2018-03-28T22:06:07.658Z,3.53
2018-03-28T22:08:33.775Z,3.23
2018-03-28T22:11:00.679Z,4.70
2018-03-28T22:13:26.893Z,4.23
2018-03-28T22:15:53.056Z,4.17
2018-03-28T22:18:20.024Z,4.50
2018-03-28T22:20:46.956Z,4.77
2018-03-28T22:23:13.896Z,3.30
2018-03-28T22:25:40.749Z,3.70
2018-03-28T22:28:07.632Z,4.00
2018-03-28T22:30:33.861Z,3.77
2018-03-28T22:33:00.016Z,3.90
2018-03-28T22:35:26.958Z,6.33
2018-03-28T22:37:53.156Z,4.47
2018-03-28T22:40:19.369Z,3.87
2018-03-28T22:42:45.480Z,4.17
2018-03-28T22:45:12.453Z,3.93
2018-03-28T22:47:38.660Z,4.10
2018-03-28T22:50:04.848Z,3.77
2018-03-28T22:52:31.024Z,3.90
2018-03-28T22:54:57.178Z,4.73
2018-03-28T22:57:23.369Z,3.97
2018-03-28T22:59:49.543Z,5.10
2018-03-28T23:02:15.693Z,3.83
2018-03-28T23:04:41.866Z,4.60
2018-03-28T23:07:08.061Z,3.93
2018-03-28T23:09:34.964Z,3.70
2018-03-28T23:12:01.114Z,4.10
2018-03-28T23:14:27.264Z,3.90
2018-03-28T23:16:54.158Z,4.00
2018-03-28T23:19:20.330Z,3.80
2018-03-28T23:21:47.214Z,4.00
2018-03-28T23:24:13.318Z,4.20
2018-03-28T23:26:39.524Z,3.77
2018-03-28T23:29:06.403Z,4.00
2018-03-28T23:31:32.578Z,4.27
2018-03-28T23:33:58.762Z,3.70
2018-03-28T23:36:24.925Z,5.27
2018-03-28T23:38:51.116Z,4.13
2018-03-28T23:41:17.217Z,4.13
2018-03-28T23:43:44.122Z,5.10
2018-03-28T23:46:11.054Z,4.00
2018-03-28T23:48:37.202Z,5.17
2018-03-28T23:51:03.406Z,4.63
2018-03-28T23:53:29.549Z,4.43
2018-03-28T23:55:56.480Z,5.27
2018-03-28T23:58:22.669Z,4.50
